createdAt,value
2018-09-15T00:00:23.090Z,96.70
2018-09-15T00:02:56.593Z,96.80
2018-09-15T00:05:32.518Z,96.80
2018-09-15T00:08:06.012Z,96.80
2018-09-15T00:10:42.199Z,96.90
2018-09-15T00:13:16.557Z,97.00
2018-09-15T00:15:50.204Z,96.90
2018-09-15T00:18:21.839Z,96.80
2018-09-15T00:20:53.822Z,96.80
2018-09-15T00:23:25.517Z,96.80
2018-09-15T00:25:57.211Z,96.90
2018-09-15T00:28:29.012Z,96.80
2018-09-15T00:30:56.913Z,96.80
2018-09-15T00:33:28.016Z,96.80
2018-09-15T00:36:03.515Z,96.70
2018-09-15T00:38:35.221Z,96.80
2018-09-15T00:41:09.329Z,96.70
2018-09-15T00:43:41.952Z,96.80
2018-09-15T00:46:23.648Z,96.80
2018-09-15T00:48:53.822Z,96.70
2018-09-15T00:51:24.249Z,96.60
2018-09-15T00:53:55.389Z,96.60
2018-09-15T00:56:27.122Z,96.70
2018-09-15T00:59:02.012Z,96.60
2018-09-15T01:01:34.230Z,96.60
2018-09-15T01:04:05.097Z,96.50
2018-09-15T01:06:37.930Z,96.70
2018-09-15T01:09:09.942Z,96.50
2018-09-15T01:11:48.132Z,96.40
2018-09-15T01:14:27.560Z,96.80
2018-09-15T01:17:01.160Z,96.50
2018-09-15T01:19:40.009Z,96.40
2018-09-15T01:22:17.232Z,96.60
2018-09-15T01:24:48.211Z,96.40
2018-09-15T01:27:20.744Z,96.60
2018-09-15T01:29:53.224Z,96.60
2018-09-15T01:32:26.348Z,96.60
2018-09-15T01:35:06.851Z,96.60
2018-09-15T01:37:41.735Z,96.50
2018-09-15T01:40:14.551Z,96.50
2018-09-15T01:42:48.126Z,96.40
2018-09-15T01:45:21.260Z,96.50
2018-09-15T01:47:55.108Z,96.40
2018-09-15T01:50:27.588Z,96.50
2018-09-15T01:53:03.584Z,96.40
2018-09-15T01:55:37.050Z,96.40
2018-09-15T01:58:08.664Z,96.40
2018-09-15T02:00:40.095Z,96.40
2018-09-15T02:03:15.352Z,96.30
2018-09-15T02:05:47.529Z,96.40
2018-09-15T02:08:20.018Z,96.20
2018-09-15T02:10:51.971Z,96.30
2018-09-15T02:13:24.269Z,96.30
2018-09-15T02:16:04.872Z,96.60
2018-09-15T02:18:36.909Z,96.40
2018-09-15T02:21:07.589Z,96.40
2018-09-15T02:23:45.961Z,96.40
2018-09-15T02:26:18.782Z,96.30
2018-09-15T02:28:48.842Z,96.30
2018-09-15T02:31:23.479Z,96.40
2018-09-15T02:33:57.905Z,96.40
2018-09-15T02:36:29.958Z,96.40
2018-09-15T02:39:04.787Z,96.30
2018-09-15T02:41:39.400Z,96.20
2018-09-15T02:44:13.015Z,96.40
2018-09-15T02:46:45.143Z,96.40
2018-09-15T02:49:20.678Z,96.40
2018-09-15T02:51:54.282Z,96.40
2018-09-15T02:54:25.595Z,96.20
2018-09-15T02:56:55.920Z,96.30
2018-09-15T02:59:34.295Z,96.30
2018-09-15T03:02:07.005Z,96.40
2018-09-15T03:04:36.404Z,96.30
2018-09-15T03:07:08.832Z,96.40
2018-09-15T03:09:47.761Z,96.40
2018-09-15T03:12:18.009Z,96.50
2018-09-15T03:14:50.379Z,96.50
2018-09-15T03:17:23.277Z,96.40
2018-09-15T03:19:58.911Z,96.70
2018-09-15T03:22:43.418Z,96.50
2018-09-15T03:25:17.417Z,96.40
2018-09-15T03:27:48.414Z,96.40
2018-09-15T03:30:22.700Z,96.40
2018-09-15T03:32:56.618Z,96.40
2018-09-15T03:35:30.620Z,96.40
2018-09-15T03:38:02.322Z,96.40
2018-09-15T03:40:42.726Z,96.50
2018-09-15T03:43:16.227Z,96.50
2018-09-15T03:45:46.333Z,96.50
2018-09-15T03:48:20.396Z,96.50
2018-09-15T03:50:59.329Z,96.60
2018-09-15T03:53:31.734Z,96.60
2018-09-15T03:56:08.958Z,96.60
2018-09-15T03:58:39.133Z,96.70
2018-09-15T04:01:10.028Z,96.60
2018-09-15T04:03:40.147Z,96.40
2018-09-15T04:06:13.946Z,96.50
2018-09-15T04:08:45.334Z,96.60
2018-09-15T04:11:15.494Z,96.40
2018-09-15T04:13:45.505Z,96.60
2018-09-15T04:16:14.113Z,96.30
2018-09-15T04:18:42.653Z,96.30
2018-09-15T04:21:17.404Z,96.10
2018-09-15T04:23:47.689Z,96.20
2018-09-15T04:26:16.507Z,96.40
2018-09-15T04:28:45.071Z,96.50
2018-09-15T04:31:16.656Z,96.20
2018-09-15T04:33:45.816Z,96.50
2018-09-15T04:36:16.594Z,96.50
2018-09-15T04:38:46.973Z,96.60
2018-09-15T04:41:17.576Z,96.60
2018-09-15T04:43:48.831Z,96.70
2018-09-15T04:46:18.268Z,96.60
2018-09-15T04:48:46.956Z,96.40
2018-09-15T04:51:15.181Z,96.40
2018-09-15T04:53:46.566Z,96.50
2018-09-15T04:56:15.115Z,96.30
2018-09-15T04:58:46.972Z,96.50
2018-09-15T05:01:16.284Z,96.40
2018-09-15T05:03:44.385Z,96.60
2018-09-15T05:06:13.343Z,96.60
2018-09-15T05:08:42.481Z,96.60
2018-09-15T05:11:12.504Z,96.70
2018-09-15T05:13:42.017Z,96.70
2018-09-15T05:16:11.589Z,96.80
2018-09-15T05:18:39.597Z,96.80
2018-09-15T05:21:07.424Z,96.60
2018-09-15T05:23:36.111Z,96.70
2018-09-15T05:26:04.695Z,96.80
2018-09-15T05:28:33.221Z,96.90
2018-09-15T05:31:01.818Z,97.00
2018-09-15T05:33:30.721Z,97.00
2018-09-15T05:36:01.990Z,97.10
2018-09-15T05:38:30.057Z,97.30
2018-09-15T05:40:59.189Z,97.10
2018-09-15T05:43:28.671Z,96.80
2018-09-15T05:45:57.505Z,96.60
2018-09-15T05:48:25.429Z,96.50
2018-09-15T05:50:53.904Z,96.40
2018-09-15T05:53:22.746Z,96.30
2018-09-15T05:55:51.320Z,96.30
2018-09-15T05:58:20.836Z,96.40
2018-09-15T06:00:51.283Z,96.50
2018-09-15T06:03:19.716Z,96.50
2018-09-15T06:05:49.494Z,96.70
2018-09-15T06:08:17.616Z,96.80
2018-09-15T06:10:45.899Z,96.90
2018-09-15T06:13:15.090Z,96.90
2018-09-15T06:15:45.447Z,96.70
2018-09-15T06:18:16.408Z,96.70
2018-09-15T06:20:45.229Z,96.50
2018-09-15T06:23:14.160Z,96.70
2018-09-15T06:25:42.436Z,96.60
2018-09-15T06:28:12.359Z,96.40
2018-09-15T06:30:44.275Z,96.50
2018-09-15T06:33:12.205Z,96.40
2018-09-15T06:35:42.972Z,96.40
2018-09-15T06:38:12.016Z,96.20
2018-09-15T06:40:41.557Z,96.10
2018-09-15T06:43:10.552Z,96.30
2018-09-15T06:45:38.530Z,96.30
2018-09-15T06:48:08.812Z,96.40
2018-09-15T06:50:39.842Z,96.50
2018-09-15T06:53:09.747Z,96.40
2018-09-15T06:55:40.743Z,96.50
2018-09-15T06:58:10.395Z,96.50
2018-09-15T07:00:41.786Z,96.60
2018-09-15T07:03:10.792Z,96.60
2018-09-15T07:05:42.330Z,96.40
2018-09-15T07:08:13.356Z,96.30
2018-09-15T07:10:43.841Z,96.80
2018-09-15T07:13:12.657Z,96.10
2018-09-15T07:15:41.629Z,96.20
2018-09-15T07:18:10.707Z,96.20
2018-09-15T07:20:40.919Z,96.20
2018-09-15T07:23:10.679Z,96.10
2018-09-15T07:25:38.753Z,96.30
2018-09-15T07:28:06.884Z,96.30
2018-09-15T07:30:34.757Z,96.20
2018-09-15T07:33:02.736Z,96.50
2018-09-15T07:35:31.548Z,96.10
2018-09-15T07:37:59.757Z,95.90
2018-09-15T07:40:28.993Z,95.60
2018-09-15T07:42:57.887Z,95.70
2018-09-15T07:45:25.717Z,95.50
2018-09-15T07:47:53.554Z,95.70
2018-09-15T07:50:22.088Z,95.10
2018-09-15T07:52:50.901Z,95.10
2018-09-15T07:55:19.398Z,95.20
2018-09-15T07:57:47.370Z,95.10
2018-09-15T08:00:15.627Z,94.30
2018-09-15T08:02:43.474Z,94.60
2018-09-15T08:05:11.322Z,94.00
2018-09-15T08:07:39.905Z,94.20
2018-09-15T08:10:07.812Z,94.20
2018-09-15T08:12:35.709Z,94.20
2018-09-15T08:15:03.702Z,94.10
2018-09-15T08:17:31.631Z,94.40
2018-09-15T08:19:59.507Z,93.00
2018-09-15T08:22:29.527Z,93.10
2018-09-15T08:24:57.419Z,93.00
2018-09-15T08:27:25.359Z,92.70
2018-09-15T08:29:53.202Z,93.50
2018-09-15T08:32:21.064Z,93.20
2018-09-15T08:34:48.914Z,92.70
2018-09-15T08:37:18.219Z,92.90
2018-09-15T08:39:46.069Z,92.30
2018-09-15T08:42:14.803Z,92.50
2018-09-15T08:44:42.928Z,92.80
2018-09-15T08:47:10.783Z,92.40
2018-09-15T08:49:38.638Z,92.80
2018-09-15T08:52:07.457Z,93.10
2018-09-15T08:54:35.456Z,92.30
2018-09-15T08:57:03.665Z,92.70
2018-09-15T08:59:31.512Z,92.50
2018-09-15T09:01:59.540Z,92.20
2018-09-15T09:04:27.417Z,91.70
2018-09-15T09:06:55.278Z,92.10
2018-09-15T09:09:23.143Z,91.80
2018-09-15T09:11:51.006Z,92.20
2018-09-15T09:14:18.892Z,92.30
2018-09-15T09:16:46.789Z,91.50
2018-09-15T09:19:14.721Z,92.20
2018-09-15T09:21:43.284Z,92.10
2018-09-15T09:24:11.207Z,92.20
2018-09-15T09:26:39.900Z,92.00
2018-09-15T09:29:07.752Z,92.10
2018-09-15T09:31:36.089Z,91.20
2018-09-15T09:34:03.981Z,91.10
2018-09-15T09:36:31.880Z,91.30
2018-09-15T09:38:59.788Z,91.40
2018-09-15T09:41:27.743Z,91.40
2018-09-15T09:43:55.549Z,91.50
2018-09-15T09:46:23.392Z,91.80
2018-09-15T09:48:51.334Z,92.20
2018-09-15T09:53:42.788Z,92.20
2018-09-15T09:56:10.658Z,92.30
2018-09-15T09:58:38.558Z,92.70
2018-09-15T10:01:12.188Z,92.60
2018-09-15T10:03:40.072Z,92.10
2018-09-15T10:06:07.959Z,92.30
2018-09-15T10:08:35.932Z,92.30
2018-09-15T10:11:03.803Z,92.60
2018-09-15T10:13:31.688Z,92.50
2018-09-15T10:15:59.575Z,92.60
2018-09-15T10:18:28.156Z,92.50
2018-09-15T10:20:56.088Z,92.80
2018-09-15T10:23:23.978Z,93.10
2018-09-15T10:25:51.810Z,92.90
2018-09-15T10:28:20.005Z,92.90
2018-09-15T10:30:47.889Z,93.10
2018-09-15T10:33:16.039Z,93.30
2018-09-15T10:35:43.897Z,92.90
2018-09-15T10:38:11.829Z,93.40
2018-09-15T10:40:39.697Z,93.50
2018-09-15T10:43:07.702Z,93.20
2018-09-15T10:45:35.583Z,93.40
2018-09-15T10:48:03.491Z,93.40
2018-09-15T10:50:31.995Z,93.50
2018-09-15T10:52:59.972Z,93.50
2018-09-15T10:55:27.901Z,93.50
2018-09-15T10:57:56.522Z,93.70
2018-09-15T11:00:24.401Z,93.50
2018-09-15T11:02:52.238Z,93.40
2018-09-15T11:05:20.097Z,93.50
2018-09-15T11:07:47.950Z,93.40
2018-09-15T11:10:15.842Z,93.40
2018-09-15T11:12:43.758Z,93.20
2018-09-15T11:15:11.682Z,93.40
2018-09-15T11:17:39.676Z,93.50
2018-09-15T11:20:08.270Z,93.70
2018-09-15T11:22:36.725Z,93.60
2018-09-15T11:25:04.668Z,93.60
2018-09-15T11:27:32.525Z,93.70
2018-09-15T11:30:01.128Z,94.10
2018-09-15T11:32:30.004Z,94.00
2018-09-15T11:34:58.323Z,93.50
2018-09-15T11:37:26.228Z,94.00
2018-09-15T11:39:54.776Z,94.30
2018-09-15T11:42:24.235Z,93.90
2018-09-15T11:44:52.989Z,93.90
2018-09-15T11:47:21.987Z,94.20
2018-09-15T11:49:50.989Z,94.20
2018-09-15T11:52:18.839Z,93.90
2018-09-15T11:54:46.757Z,93.90
2018-09-15T11:57:15.700Z,94.10
2018-09-15T11:59:44.389Z,93.80
2018-09-15T12:02:12.556Z,93.50
2018-09-15T12:04:40.423Z,93.80
2018-09-15T12:07:09.174Z,93.90
2018-09-15T12:09:37.381Z,93.30
2018-09-15T12:12:05.281Z,93.40
2018-09-15T12:14:33.146Z,93.80
2018-09-15T12:17:01.043Z,93.80
2018-09-15T12:19:29.171Z,93.60
2018-09-15T12:21:57.034Z,93.70
2018-09-15T12:24:25.230Z,93.80
2018-09-15T12:26:53.063Z,92.60
2018-09-15T12:29:20.963Z,92.60
2018-09-15T12:31:48.833Z,91.90
2018-09-15T12:34:17.483Z,92.20
2018-09-15T12:36:46.284Z,92.50
2018-09-15T12:39:14.980Z,91.70
2018-09-15T12:41:43.802Z,91.30
2018-09-15T12:44:11.690Z,91.00
2018-09-15T12:46:39.704Z,90.30
2018-09-15T12:49:07.576Z,89.10
2018-09-15T12:51:35.539Z,89.90
2018-09-15T12:54:03.415Z,89.50
2018-09-15T12:56:32.038Z,90.70
2018-09-15T12:58:59.888Z,90.10
2018-09-15T13:01:27.769Z,90.40
2018-09-15T13:03:55.600Z,90.20
2018-09-15T13:06:24.396Z,90.30
2018-09-15T13:08:52.282Z,88.00
2018-09-15T13:11:21.442Z,87.70
2018-09-15T13:13:49.281Z,89.00
2018-09-15T13:16:17.703Z,87.20
2018-09-15T13:18:45.589Z,88.80
2018-09-15T13:21:13.748Z,89.00
2018-09-15T13:23:42.415Z,86.50
2018-09-15T13:26:10.246Z,87.70
2018-09-15T13:28:39.289Z,89.10
2018-09-15T13:31:07.159Z,89.00
2018-09-15T13:33:35.029Z,89.10
2018-09-15T13:36:02.911Z,88.20
2018-09-15T13:38:30.890Z,88.50
2018-09-15T13:40:58.752Z,88.60
2018-09-15T13:43:26.615Z,86.10
2018-09-15T13:45:55.223Z,86.90
2018-09-15T13:48:23.120Z,87.90
2018-09-15T13:50:52.109Z,89.20
2018-09-15T13:53:20.029Z,89.50
2018-09-15T13:55:47.917Z,89.10
2018-09-15T13:58:15.853Z,87.80
2018-09-15T14:00:43.829Z,87.70
2018-09-15T14:03:11.721Z,86.20
2018-09-15T14:05:39.623Z,86.10
2018-09-15T14:08:08.335Z,86.40
2018-09-15T14:10:36.559Z,87.20
2018-09-15T14:13:04.803Z,87.30
2018-09-15T14:15:32.643Z,88.70
2018-09-15T14:18:00.481Z,88.10
2018-09-15T14:20:28.344Z,88.70
2018-09-15T14:22:56.209Z,88.00
2018-09-15T14:25:24.082Z,86.80
2018-09-15T14:27:52.045Z,87.90
2018-09-15T14:30:19.961Z,87.70
2018-09-15T14:32:47.842Z,86.80
2018-09-15T14:35:15.692Z,86.60
2018-09-15T14:37:43.563Z,86.60
2018-09-15T14:40:11.922Z,87.90
2018-09-15T14:42:39.951Z,86.60
2018-09-15T14:45:07.829Z,87.70
2018-09-15T14:47:35.646Z,87.20
2018-09-15T14:50:03.613Z,85.80
2018-09-15T14:52:31.990Z,87.10
2018-09-15T14:55:00.405Z,87.50
2018-09-15T14:57:28.248Z,86.70
2018-09-15T14:59:56.187Z,86.50
2018-09-15T15:02:24.105Z,86.80
2018-09-15T15:04:52.005Z,86.80
2018-09-15T15:07:19.918Z,87.70
2018-09-15T15:09:47.748Z,87.10
2018-09-15T15:12:15.611Z,86.00
2018-09-15T15:14:43.440Z,87.40
2018-09-15T15:17:12.244Z,87.10
2018-09-15T15:19:40.181Z,86.70
2018-09-15T15:22:08.628Z,87.00
2018-09-15T15:24:36.592Z,87.20
2018-09-15T15:27:05.568Z,87.90
2018-09-15T15:29:34.190Z,87.10
2018-09-15T15:32:02.062Z,87.30
2018-09-15T15:34:30.015Z,88.10
2018-09-15T15:36:57.870Z,87.90
2018-09-15T15:39:25.734Z,88.00
2018-09-15T15:41:53.696Z,88.70
2018-09-15T15:44:21.447Z,88.30
2018-09-15T15:46:49.560Z,87.60
2018-09-15T15:49:17.445Z,87.30
2018-09-15T15:51:45.340Z,88.30
2018-09-15T15:54:13.246Z,88.00
2018-09-15T15:56:41.390Z,88.00
2018-09-15T15:59:09.305Z,87.80
2018-09-15T16:01:37.752Z,86.70
2018-09-15T16:04:05.695Z,86.90
2018-09-15T16:06:34.022Z,88.10
2018-09-15T16:09:01.913Z,88.40
2018-09-15T16:11:30.177Z,88.70
2018-09-15T16:13:58.044Z,88.90
2018-09-15T16:16:25.900Z,88.60
2018-09-15T16:18:53.767Z,88.90
2018-09-15T16:21:21.616Z,88.50
2018-09-15T16:23:50.326Z,88.40
2018-09-15T16:26:19.019Z,88.60
2018-09-15T16:28:46.882Z,88.60
2018-09-15T16:31:14.766Z,88.80
2018-09-15T16:33:42.600Z,89.10
2018-09-15T16:36:10.458Z,89.20
2018-09-15T16:38:38.384Z,89.50
2018-09-15T16:41:06.513Z,89.60
2018-09-15T16:43:34.413Z,89.60
2018-09-15T16:46:02.663Z,89.90
2018-09-15T16:48:30.565Z,90.00
2018-09-15T16:50:58.378Z,90.10
2018-09-15T16:53:27.045Z,90.20
2018-09-15T16:55:54.883Z,90.30
2018-09-15T16:58:23.004Z,90.40
2018-09-15T17:00:51.064Z,90.40
2018-09-15T17:03:19.092Z,90.50
2018-09-15T17:05:46.925Z,90.50
2018-09-15T17:08:14.859Z,90.50
2018-09-15T17:10:42.957Z,90.50
2018-09-15T17:13:10.791Z,90.80
2018-09-15T17:15:38.664Z,90.60
2018-09-15T17:18:06.540Z,90.70
2018-09-15T17:20:35.263Z,90.90
2018-09-15T17:23:03.306Z,90.90
2018-09-15T17:25:31.188Z,91.10
2018-09-15T17:27:59.100Z,91.20
2018-09-15T17:30:27.028Z,91.30
2018-09-15T17:32:54.897Z,91.20
2018-09-15T17:35:22.741Z,91.50
2018-09-15T17:37:50.967Z,91.60
2018-09-15T17:40:19.813Z,91.50
2018-09-15T17:42:48.758Z,91.60
2018-09-15T17:45:17.463Z,91.60
2018-09-15T17:47:45.280Z,91.70
2018-09-15T17:50:13.195Z,91.80
2018-09-15T17:52:41.707Z,91.80
2018-09-15T17:55:09.925Z,91.90
2018-09-15T17:57:37.836Z,91.80
2018-09-15T18:00:06.458Z,92.10
2018-09-15T18:02:35.695Z,92.00
2018-09-15T18:05:03.725Z,92.00
2018-09-15T18:07:31.603Z,91.90
2018-09-15T18:10:00.397Z,92.00
2018-09-15T18:12:28.544Z,92.20
2018-09-15T18:14:57.222Z,92.40
2018-09-15T18:17:25.402Z,92.40
2018-09-15T18:19:53.341Z,92.60
2018-09-15T18:22:21.727Z,92.60
2018-09-15T18:24:49.576Z,92.80
2018-09-15T18:27:17.454Z,92.90
2018-09-15T18:29:45.311Z,93.00
2018-09-15T18:32:13.737Z,92.90
2018-09-15T18:34:42.728Z,93.00
2018-09-15T18:37:11.746Z,93.00
2018-09-15T18:39:39.936Z,93.20
2018-09-15T18:42:07.784Z,93.40
2018-09-15T18:44:35.670Z,93.50
2018-09-15T18:47:03.620Z,93.60
2018-09-15T18:49:32.150Z,93.40
2018-09-15T18:52:00.372Z,93.50
2018-09-15T18:54:28.327Z,93.50
2018-09-15T18:56:56.385Z,93.50
2018-09-15T18:59:25.203Z,93.20
2018-09-15T19:01:53.903Z,93.20
2018-09-15T19:04:22.359Z,93.30
2018-09-15T19:06:52.910Z,93.20
2018-09-15T19:09:21.014Z,93.10
2018-09-15T19:11:49.541Z,93.10
2018-09-15T19:14:17.529Z,93.10
2018-09-15T19:16:45.941Z,93.20
2018-09-15T19:19:14.576Z,93.10
2018-09-15T19:21:43.323Z,93.30
2018-09-15T19:24:11.301Z,93.30
2018-09-15T19:26:40.742Z,93.40
2018-09-15T19:29:08.690Z,93.50
2018-09-15T19:31:36.589Z,93.40
2018-09-15T19:34:04.526Z,93.30
2018-09-15T19:36:32.462Z,93.40
2018-09-15T19:39:00.371Z,93.50
2018-09-15T19:41:28.266Z,93.60
2018-09-15T19:43:56.775Z,93.60
2018-09-15T19:46:24.616Z,93.60
2018-09-15T19:48:52.480Z,93.60
2018-09-15T19:51:20.309Z,93.40
2018-09-15T19:53:48.180Z,93.40
2018-09-15T19:56:16.069Z,93.30
2018-09-15T19:58:43.922Z,93.30
2018-09-15T20:01:12.472Z,93.20
2018-09-15T20:03:40.337Z,93.20
2018-09-15T20:06:08.262Z,93.20
2018-09-15T20:08:36.083Z,93.30
2018-09-15T20:11:03.973Z,93.20
2018-09-15T20:13:31.876Z,93.30
2018-09-15T20:15:58.642Z,93.30
2018-09-15T20:18:25.361Z,93.50
2018-09-15T20:20:52.089Z,93.40
2018-09-15T20:23:19.937Z,93.40
2018-09-15T20:25:47.878Z,93.40
2018-09-15T20:28:16.163Z,93.80
2018-09-15T20:30:44.044Z,93.50
2018-09-15T20:33:12.311Z,93.40
2018-09-15T20:35:40.190Z,93.30
2018-09-15T20:38:09.010Z,93.30
2018-09-15T20:40:36.916Z,93.20
2018-09-15T20:43:05.138Z,93.50
2018-09-15T20:45:32.996Z,93.30
2018-09-15T20:48:00.849Z,93.30
2018-09-15T20:50:28.686Z,93.50
2018-09-15T20:52:56.508Z,93.10
2018-09-15T20:55:24.358Z,93.00
2018-09-15T20:57:52.177Z,93.20
2018-09-15T21:00:20.052Z,93.40
2018-09-15T21:02:47.960Z,93.50
2018-09-15T21:05:15.832Z,93.60
2018-09-15T21:07:43.711Z,93.90
2018-09-15T21:10:11.561Z,94.20
2018-09-15T21:12:39.389Z,93.90
2018-09-15T21:15:07.371Z,93.80
2018-09-15T21:17:35.193Z,93.80
2018-09-15T21:20:03.148Z,93.90
2018-09-15T21:22:31.007Z,94.00
2018-09-15T21:24:58.862Z,94.00
2018-09-15T21:27:26.692Z,94.20
2018-09-15T21:29:54.534Z,93.90
2018-09-15T21:32:22.398Z,94.10
2018-09-15T21:34:50.527Z,94.10
2018-09-15T21:37:18.427Z,93.90
2018-09-15T21:39:46.241Z,93.80
2018-09-15T21:42:14.085Z,93.90
2018-09-15T21:44:41.962Z,93.80
2018-09-15T21:47:09.847Z,93.50
2018-09-15T21:49:37.708Z,93.80
2018-09-15T21:52:05.936Z,93.80
2018-09-15T21:54:33.829Z,93.70
2018-09-15T21:57:01.699Z,93.80
2018-09-15T21:59:29.562Z,94.00
2018-09-15T22:01:57.389Z,94.00
2018-09-15T22:04:25.200Z,94.00
2018-09-15T22:06:53.645Z,94.10
2018-09-15T22:09:21.851Z,93.80
2018-09-15T22:11:50.011Z,93.70
2018-09-15T22:14:17.854Z,93.70
2018-09-15T22:16:45.712Z,93.70
2018-09-15T22:19:14.687Z,93.70
2018-09-15T22:21:43.416Z,93.70
2018-09-15T22:24:11.325Z,93.70
2018-09-15T22:26:40.145Z,93.80
2018-09-15T22:29:07.997Z,93.80
2018-09-15T22:31:35.863Z,94.00
2018-09-15T22:34:03.849Z,93.60
2018-09-15T22:36:31.742Z,93.90
2018-09-15T22:38:59.566Z,93.80
2018-09-15T22:41:28.187Z,93.80
2018-09-15T22:43:56.045Z,94.10
2018-09-15T22:46:23.867Z,93.60
2018-09-15T22:48:51.671Z,93.40
2018-09-15T22:51:19.530Z,93.40
2018-09-15T22:53:47.336Z,93.60
2018-09-15T22:56:15.209Z,93.60
2018-09-15T22:58:43.045Z,93.60
2018-09-15T23:01:10.871Z,93.70
2018-09-15T23:03:38.713Z,94.20
2018-09-15T23:06:07.432Z,93.80
2018-09-15T23:08:35.301Z,93.80
2018-09-15T23:11:03.160Z,93.90
2018-09-15T23:13:30.996Z,93.90
2018-09-15T23:15:58.864Z,94.00
2018-09-15T23:18:26.677Z,94.00
2018-09-15T23:20:55.032Z,94.10
2018-09-15T23:23:23.585Z,94.00
2018-09-15T23:25:51.401Z,94.00
2018-09-15T23:28:19.220Z,94.20
2018-09-15T23:30:47.595Z,93.90
2018-09-15T23:33:16.091Z,93.90
2018-09-15T23:35:43.916Z,93.80
2018-09-15T23:38:11.751Z,93.90
2018-09-15T23:40:39.590Z,93.90
2018-09-15T23:43:07.461Z,93.90
2018-09-15T23:45:35.338Z,94.10
2018-09-15T23:48:03.188Z,93.80
2018-09-15T23:50:31.009Z,93.70
2018-09-15T23:52:58.806Z,93.60
2018-09-15T23:55:26.595Z,93.70
2018-09-15T23:57:54.429Z,93.60
